Time;durP1;ratioP1;P1;durP2;ratioP2;P2;SDS_P1;SDS_P2;PMS_P1;PMS_P2;Temp;Humidity;BMP_temperature;BMP_pressure;BME280_temperature;BME280_humidity;BME280_pressure;Samples;Min_cycle;Max_cycle;Signal;HPM_P1;HPM_P2
2023/01/01 00:00:16;;;;;;;260.42;110.88;;;;;;;4.77;73.81;101112.66;3161771;28;20047;-69
2023/01/01 00:01:48;;;;;;;274.70;109.63;;;;;;;5.39;73.80;101216.78;3169344;28;20043;-68
2023/01/01 00:03:19;;;;;;;224.25;97.43;;;;;;;5.38;73.99;101209.91;3165517;28;20093;-68
2023/01/01 00:04:51;;;;;;;187.13;83.63;;;;;;;5.39;74.05;101208.16;3156743;28;20067;-69
2023/01/01 00:06:24;;;;;;;173.02;81.50;;;;;;;5.37;74.07;101208.16;3158332;28;20117;-69
2023/01/01 00:07:55;;;;;;;161.77;76.28;;;;;;;5.34;74.11;101209.88;3168124;28;20116;-69
2023/01/01 00:11:17;;;;;;;155.55;69.60;;;;;;;5.25;74.32;101209.03;3159294;28;20052;-68
2023/01/01 00:12:50;;;;;;;170.13;75.78;;;;;;;5.13;74.51;101193.53;3169341;28;20440;-69
2023/01/01 00:14:22;;;;;;;163.65;74.47;;;;;;;5.25;74.42;101214.19;3167221;28;20051;-69
2023/01/01 00:15:54;;;;;;;154.70;71.43;;;;;;;5.26;74.30;101217.63;3169408;28;20055;-69
2023/01/01 00:17:26;;;;;;;169.73;75.20;;;;;;;5.18;74.37;101199.56;3169379;28;20543;-69
2023/01/01 00:18:58;;;;;;;160.80;73.38;;;;;;;5.24;74.38;101209.03;3158222;28;20441;-69
2023/01/01 00:20:30;;;;;;;160.85;72.57;;;;;;;5.20;74.54;101205.56;3156710;28;20544;-68
2023/01/01 00:22:02;;;;;;;159.35;72.13;;;;;;;5.24;74.39;101214.22;3156199;28;20164;-69
2023/01/01 00:23:34;;;;;;;151.38;72.38;;;;;;;5.23;74.35;101218.53;3156715;28;20068;-68
2023/01/01 00:25:07;;;;;;;151.55;69.90;;;;;;;5.23;74.23;101220.22;3165454;28;20055;-68
2023/01/01 00:26:39;;;;;;;147.80;69.97;;;;;;;5.22;74.36;101219.34;3165315;28;20601;-70
2023/01/01 00:28:12;;;;;;;150.40;69.25;;;;;;;5.20;74.48;101225.38;3169514;28;20051;-70
2023/01/01 00:29:44;;;;;;;134.95;64.43;;;;;;;5.12;74.44;101212.50;3162074;28;20048;-69
2023/01/01 00:31:18;;;;;;;131.10;62.47;;;;;;;5.18;74.63;101233.16;3156373;28;20044;-69
2023/01/01 00:32:50;;;;;;;138.65;63.05;;;;;;;5.17;74.53;101220.22;3156764;28;20048;-70
2023/01/01 00:34:22;;;;;;;132.60;59.67;;;;;;;5.16;74.61;101221.09;3156684;28;20097;-69
2023/01/01 00:35:53;;;;;;;135.85;60.35;;;;;;;5.16;74.51;101224.53;3156640;28;20067;-69
2023/01/01 00:37:27;;;;;;;117.13;58.45;;;;;;;5.16;74.51;101229.69;3151658;28;20052;-68
2023/01/01 00:38:59;;;;;;;114.15;51.72;;;;;;;5.16;74.57;101234.00;3169205;28;20474;-69
2023/01/01 00:40:30;;;;;;;115.93;52.90;;;;;;;4.62;74.50;101146.22;3162274;28;20101;-68
2023/01/01 00:42:02;;;;;;;107.25;51.22;;;;;;;5.15;74.51;101230.56;3156262;28;20075;-69
2023/01/01 00:43:36;;;;;;;112.78;52.50;;;;;;;5.16;74.49;101234.00;3156473;28;20691;-69
2023/01/01 00:45:08;;;;;;;;;;;;;;;5.07;74.50;101237.44;3157103;28;20799;-69
2023/01/01 00:46:40;;;;;;;108.22;50.08;;;;;;;5.07;74.64;101237.44;3154199;28;19920;-68
2023/01/01 00:48:12;;;;;;;107.55;51.42;;;;;;;5.04;74.58;101229.69;3158589;28;20109;-69
2023/01/01 00:49:43;;;;;;;109.72;51.60;;;;;;;5.09;74.64;101242.59;3170535;28;20467;-69
2023/01/01 00:51:15;;;;;;;112.63;51.80;;;;;;;5.11;74.52;101246.03;3160583;28;20048;-69
2023/01/01 00:52:47;;;;;;;116.13;52.25;;;;;;;5.06;74.54;101243.47;3168801;28;20044;-69
2023/01/01 00:54:19;;;;;;;116.75;52.00;;;;;;;5.09;74.50;101245.16;3162533;28;20048;-69
2023/01/01 00:55:52;;;;;;;108.88;48.35;;;;;;;5.08;74.60;101246.91;3158811;28;20105;-69
2023/01/01 00:57:23;;;;;;;100.75;48.10;;;;;;;5.07;74.65;101245.19;3158777;28;20055;-69
2023/01/01 00:58:57;;;;;;;103.20;49.85;;;;;;;5.07;74.67;101250.34;3159317;28;20044;-69
2023/01/01 01:00:28;;;;;;;106.10;50.05;;;;;;;5.06;74.81;101243.47;3159577;28;20401;-69
2023/01/01 01:02:00;;;;;;;109.32;48.97;;;;;;;5.05;74.74;101246.03;3159002;28;20044;-70
2023/01/01 01:03:32;;;;;;;106.13;48.97;;;;;;;4.44;74.63;101152.22;3163821;28;20489;-69
2023/01/01 01:05:04;;;;;;;97.75;47.45;;;;;;;5.02;74.87;101252.91;3171888;28;20035;-69
2023/01/01 01:06:36;;;;;;;102.50;47.78;;;;;;;4.81;74.83;101215.91;3166284;28;20116;-69
2023/01/01 01:08:08;;;;;;;97.75;46.83;;;;;;;4.96;74.85;101240.00;3158898;28;20106;-69
2023/01/01 01:09:40;;;;;;;89.03;45.10;;;;;;;5.00;74.95;101248.63;3158630;28;20060;-68
2023/01/01 01:11:14;;;;;;;95.50;44.45;;;;;;;4.99;75.06;101244.31;3158631;28;20062;-69
2023/01/01 01:12:46;;;;;;;87.72;42.22;;;;;;;4.95;74.95;101246.03;3158627;28;20044;-69
2023/01/01 01:14:19;;;;;;;90.13;42.78;;;;;;;4.92;75.10;101234.84;3156754;28;20079;-69
2023/01/01 01:15:51;;;;;;;94.93;44.75;;;;;;;4.94;75.04;101246.03;3146359;28;20056;-69
2023/01/01 01:17:23;;;;;;;90.07;42.78;;;;;;;4.91;75.18;101256.34;3170399;28;20485;-69
2023/01/01 01:18:58;;;;;;;85.82;41.92;;;;;;;4.89;75.38;101242.59;3159802;28;20047;-69
2023/01/01 01:20:30;;;;;;;97.68;43.50;;;;;;;4.84;75.24;101237.41;3169655;28;20063;-69
2023/01/01 01:22:02;;;;;;;99.28;43.97;;;;;;;4.77;75.46;101236.56;3171286;28;20044;-70
2023/01/01 01:23:34;;;;;;;100.53;45.30;;;;;;;4.65;75.61;101207.28;3161112;28;20582;-69
2023/01/01 01:25:07;;;;;;;94.35;44.60;;;;;;;4.79;75.69;101236.53;3167788;28;20108;-70
2023/01/01 01:26:39;;;;;;;93.63;44.33;;;;;;;4.78;75.79;101237.41;3171183;28;20135;-70
2023/01/01 01:28:11;;;;;;;104.07;46.53;;;;;;;4.78;75.79;101242.56;3169460;28;20108;-69
2023/01/01 01:29:44;;;;;;;98.60;45.65;;;;;;;4.77;75.81;101241.72;3158276;28;20567;-69
2023/01/01 01:31:16;;;;;;;103.68;46.50;;;;;;;4.74;75.76;101239.13;3158375;28;20109;-69
2023/01/01 01:32:48;;;;;;;99.68;45.33;;;;;;;4.76;75.81;101239.13;3154482;28;20049;-69
2023/01/01 01:34:20;;;;;;;102.45;48.03;;;;;;;4.74;75.74;101235.69;3152325;28;20479;-69
2023/01/01 01:35:52;;;;;;;102.40;47.33;;;;;;;4.73;75.73;101242.56;3158614;28;20050;-70
2023/01/01 01:37:24;;;;;;;102.20;47.45;;;;;;;4.72;75.71;101233.09;3161655;28;20108;-70
2023/01/01 01:38:56;;;;;;;95.72;45.22;;;;;;;4.70;76.16;101234.81;3163945;28;20061;-69
2023/01/01 01:40:28;;;;;;;93.25;43.75;;;;;;;4.62;75.96;101221.03;3160888;28;20048;-68
2023/01/01 01:42:01;;;;;;;100.43;45.95;;;;;;;4.66;75.82;101230.50;3168908;28;20047;-69
2023/01/01 01:43:52;;;;;;;100.10;44.10;;;;;;;4.61;75.76;101216.72;3147066;28;20113;-69
2023/01/01 01:45:25;;;;;;;96.28;44.58;;;;;;;4.52;75.86;101208.97;3157838;28;20106;-68
2023/01/01 01:46:58;;;;;;;87.90;42.97;;;;;;;4.49;75.96;101214.97;3160563;28;20052;-69
2023/01/01 01:48:37;;;;;;;93.15;42.80;;;;;;;4.52;76.02;101214.97;3168906;28;20047;-68
2023/01/01 01:50:14;;;;;;;94.50;44.35;;;;;;;4.45;76.16;101205.53;3158199;28;20513;-68
2023/01/01 01:51:46;;;;;;;90.07;42.63;;;;;;;4.47;76.12;101215.84;3157790;28;20056;-68
2023/01/01 01:53:22;;;;;;;94.63;41.75;;;;;;;4.48;76.10;101217.56;3159231;28;20043;-69
2023/01/01 01:54:55;;;;;;;91.97;43.67;;;;;;;4.41;76.07;101213.22;3169650;28;20074;-69
2023/01/01 01:56:32;;;;;;;95.55;40.70;;;;;;;4.44;76.14;101221.88;3157329;28;20044;-68
2023/01/01 01:58:05;;;;;;;86.97;41.88;;;;;;;4.44;76.00;101215.84;3153913;28;20052;-68
2023/01/01 01:59:41;;;;;;;80.10;39.13;;;;;;;4.44;75.92;101218.44;3145855;28;20067;-69
2023/01/01 02:01:14;;;;;;;76.35;37.65;;;;;;;4.43;75.93;101214.97;3145650;28;20049;-69
2023/01/01 02:02:53;;;;;;;77.47;36.03;;;;;;;4.41;75.85;101218.38;3165973;28;20109;-69
2023/01/01 02:04:25;;;;;;;69.88;33.78;;;;;;;4.33;75.94;101200.34;3170402;28;20444;-69
2023/01/01 02:05:58;;;;;;;80.15;36.15;;;;;;;4.29;75.85;101211.50;3170304;28;20051;-68
2023/01/01 02:07:33;;;;;;;81.13;37.13;;;;;;;4.37;75.76;101217.53;3159196;28;20070;-70
2023/01/01 02:09:07;;;;;;;67.38;32.83;;;;;;;4.35;75.83;101221.84;3168874;28;20074;-69
2023/01/01 02:10:39;;;;;;;77.47;35.08;;;;;;;4.33;75.72;101221.81;3159652;28;20477;-69
2023/01/01 02:12:11;;;;;;;71.35;34.75;;;;;;;4.33;75.64;101221.81;3158088;28;20063;-69
2023/01/01 02:13:43;;;;;;;65.55;33.55;;;;;;;4.13;75.56;101183.94;3157517;28;20054;-68
2023/01/01 02:15:15;;;;;;;74.70;34.47;;;;;;;4.31;75.56;101223.53;3165816;28;20097;-69
2023/01/01 02:16:55;;;;;;;67.65;33.70;;;;;;;4.31;75.65;101230.41;3170284;28;20063;-69
2023/01/01 02:18:36;;;;;;;66.22;32.47;;;;;;;4.30;75.57;101218.38;3162874;28;20076;-69
2023/01/01 02:20:22;;;;;;;71.65;31.88;;;;;;;4.28;75.55;101226.09;3157719;28;20121;-70
2023/01/01 02:22:05;;;;;;;71.00;32.13;;;;;;;4.27;75.54;101228.69;3157869;28;20055;-71
2023/01/01 02:23:55;;;;;;;74.93;31.90;;;;;;;4.18;75.41;101216.63;3167938;28;20101;-71
2023/01/01 02:25:38;;;;;;;74.15;33.53;;;;;;;4.20;75.52;101226.91;3160300;28;20233;-69
2023/01/01 02:27:21;;;;;;;66.97;32.25;;;;;;;4.18;75.52;101219.19;3145473;28;20052;-69
2023/01/01 02:28:59;;;;;;;66.68;31.90;;;;;;;4.19;75.45;101227.78;3145397;28;20400;-70
2023/01/01 02:30:35;;;;;;;70.38;32.92;;;;;;;4.18;75.55;101233.81;3157825;28;20097;-69
2023/01/01 02:32:11;;;;;;;62.10;30.80;;;;;;;3.64;75.51;101141.66;3157957;28;20430;-69
2023/01/01 02:33:45;;;;;;;63.42;30.50;;;;;;;3.69;75.48;101149.38;3158182;28;20044;-69
2023/01/01 02:35:37;;;;;;;63.90;31.60;;;;;;;4.18;75.55;101236.38;3157990;28;20261;-69
2023/01/01 02:37:13;;;;;;;64.97;31.55;;;;;;;4.17;75.47;101225.22;3151987;28;20063;-69
2023/01/01 02:38:48;;;;;;;69.03;30.90;;;;;;;4.17;75.43;101227.81;3166485;28;20527;-67
2023/01/01 02:40:23;;;;;;;67.15;31.95;;;;;;;4.17;75.52;101229.50;3157575;28;20427;-69
2023/01/01 02:41:57;;;;;;;64.53;31.33;;;;;;;4.19;75.35;101240.69;3158771;28;20044;-69
2023/01/01 02:43:29;;;;;;;62.63;31.58;;;;;;;4.15;75.53;101236.38;3170025;28;20050;-69
2023/01/01 02:45:03;;;;;;;67.15;31.30;;;;;;;4.12;75.64;101247.53;3157623;28;20093;-69
2023/01/01 02:46:36;;;;;;;64.07;32.08;;;;;;;3.91;75.75;101206.19;3157866;28;20139;-69
2023/01/01 02:48:38;;;;;;;68.85;32.30;;;;;;;4.05;75.51;101238.91;3169925;28;20052;-69
2023/01/01 02:50:14;;;;;;;65.28;31.98;;;;;;;4.07;75.88;101231.16;3170416;28;20090;-70
2023/01/01 02:52:01;;;;;;;71.38;30.60;;;;;;;4.03;75.68;101219.13;3164545;28;20125;-69
2023/01/01 02:53:37;;;;;;;70.30;30.83;;;;;;;4.02;75.74;101219.97;3160163;28;20055;-69
2023/01/01 02:55:19;;;;;;;63.03;31.33;;;;;;;4.08;75.84;101222.56;3160981;28;20134;-69
2023/01/01 02:56:54;;;;;;;65.25;32.28;;;;;;;4.07;75.72;101226.88;3165600;28;20052;-69
2023/01/01 03:00:28;;;;;;;69.50;33.22;;;;;;;4.01;75.91;101224.28;3164338;28;20044;-69
2023/01/01 03:02:09;;;;;;;66.13;32.92;;;;;;;4.06;75.73;101234.63;3163019;28;20669;-69
2023/01/01 03:03:51;;;;;;;65.43;31.60;;;;;;;4.02;75.75;101222.56;3157273;28;20066;-69
2023/01/01 03:05:33;;;;;;;67.47;33.15;;;;;;;4.07;75.73;101231.16;3157207;28;20256;-68
2023/01/01 03:07:13;;;;;;;68.50;32.58;;;;;;;4.06;75.68;101226.88;3159473;28;20048;-69
2023/01/01 03:08:49;;;;;;;72.80;33.15;;;;;;;4.08;75.72;101232.88;3157352;28;20048;-69
2023/01/01 03:10:27;;;;;;;71.80;32.63;;;;;;;4.07;75.69;101226.03;3166306;28;20043;-70
2023/01/01 03:12:06;;;;;;;71.05;33.75;;;;;;;4.02;75.69;101217.41;3161156;28;20445;-69
2023/01/01 03:13:45;;;;;;;76.00;33.38;;;;;;;4.05;75.82;101223.44;3157150;28;20048;-69
2023/01/01 03:15:28;;;;;;;66.95;32.65;;;;;;;4.05;75.73;101219.97;3165401;28;20043;-69
2023/01/01 03:17:06;;;;;;;65.97;33.30;;;;;;;4.04;75.81;101223.44;3160683;28;20055;-68
2023/01/01 03:18:45;;;;;;;75.38;33.83;;;;;;;4.06;75.87;101219.16;3156989;28;20056;-69
2023/01/01 03:20:21;;;;;;;68.20;34.67;;;;;;;4.06;75.68;101221.72;3165360;28;20043;-68
2023/01/01 03:21:59;;;;;;;73.00;34.10;;;;;;;3.96;75.78;101207.91;3156995;28;20052;-69
2023/01/01 03:23:36;;;;;;;71.28;33.90;;;;;;;4.06;75.75;101232.03;3157235;28;20124;-69
2023/01/01 03:25:10;;;;;;;69.20;32.80;;;;;;;4.05;75.78;101225.13;3160141;28;20044;-69
2023/01/01 03:26:45;;;;;;;68.03;32.70;;;;;;;4.05;75.76;101235.44;3153363;28;20052;-69
2023/01/01 03:28:19;;;;;;;68.63;33.45;;;;;;;3.98;75.81;101224.25;3165833;28;20035;-69
2023/01/01 03:29:55;;;;;;;70.68;34.53;;;;;;;4.04;75.78;101234.59;3160927;28;20505;-69
2023/01/01 03:31:29;;;;;;;74.90;32.13;;;;;;;4.04;75.77;101229.44;3164870;28;20057;-70
2023/01/01 03:33:04;;;;;;;70.38;34.03;;;;;;;4.05;75.67;101231.19;3162323;28;20048;-70
2023/01/01 03:34:40;;;;;;;73.05;33.78;;;;;;;4.05;75.76;101238.03;3156926;28;20052;-69
2023/01/01 03:36:15;;;;;;;72.15;34.80;;;;;;;4.04;75.64;101233.75;3152178;28;20101;-69
2023/01/01 03:37:51;;;;;;;76.20;35.40;;;;;;;3.97;75.73;101214.81;3157034;28;20056;-69
2023/01/01 03:39:27;;;;;;;76.13;35.58;;;;;;;4.02;75.61;101227.72;3162846;28;20449;-69
2023/01/01 03:41:04;;;;;;;71.35;33.67;;;;;;;4.03;75.63;101224.28;3153774;28;20048;-69
2023/01/01 03:42:39;;;;;;;71.05;35.15;;;;;;;4.01;75.71;101232.00;3163082;28;20456;-69
2023/01/01 03:44:18;;;;;;;72.75;34.38;;;;;;;3.52;75.43;101153.59;3168135;28;20042;-69
2023/01/01 03:45:53;;;;;;;71.60;35.03;;;;;;;3.99;75.72;101240.59;3156998;28;20147;-69
2023/01/01 03:47:26;;;;;;;71.40;34.55;;;;;;;3.97;75.75;101234.56;3162896;28;20500;-68
2023/01/01 03:48:59;;;;;;;69.75;33.38;;;;;;;3.93;75.84;101230.25;3166367;28;20399;-68
2023/01/01 03:50:40;;;;;;;72.57;34.67;;;;;;;3.96;75.75;101238.84;3152539;28;20052;-69
2023/01/01 03:52:23;;;;;;;76.97;33.75;;;;;;;3.85;75.80;101225.94;3162091;28;20066;-69
2023/01/01 03:53:59;;;;;;;69.55;34.03;;;;;;;3.92;75.92;101233.69;3163458;28;20044;-69
2023/01/01 03:55:35;;;;;;;68.07;34.42;;;;;;;3.96;76.04;101240.56;3157340;28;20114;-70
2023/01/01 03:57:12;;;;;;;76.63;35.78;;;;;;;3.94;76.12;101237.16;3155544;28;20101;-70
2023/01/01 03:58:49;;;;;;;79.35;36.03;;;;;;;3.86;76.31;101230.22;3151668;28;20095;-70
2023/01/01 04:00:26;;;;;;;69.53;33.65;;;;;;;3.32;76.39;101146.63;3150140;28;20040;-70
2023/01/01 04:02:00;;;;;;;76.32;35.70;;;;;;;3.88;76.59;101249.13;3156897;28;20052;-69
2023/01/01 04:03:36;;;;;;;71.65;34.75;;;;;;;3.86;76.56;101248.25;3156917;28;20044;-70
2023/01/01 04:05:10;;;;;;;74.13;35.25;;;;;;;3.87;76.71;101251.69;3161581;28;20093;-69
2023/01/01 04:06:42;;;;;;;78.97;34.80;;;;;;;3.87;76.75;101249.09;3169581;28;20075;-69
2023/01/01 04:08:15;;;;;;;72.38;34.33;;;;;;;3.88;76.82;101251.72;3169469;28;20104;-70
2023/01/01 04:09:52;;;;;;;74.00;34.67;;;;;;;3.88;76.68;101246.56;3168877;28;20049;-69
2023/01/01 04:13:17;;;;;;;76.80;34.55;;;;;;;3.90;76.75;101243.13;3156923;28;20047;-70
2023/01/01 04:14:48;;;;;;;71.25;33.97;;;;;;;3.92;76.74;101237.13;3161344;28;20324;-68
2023/01/01 04:16:20;;;;;;;75.25;35.10;;;;;;;3.87;76.73;101237.13;3165976;28;20054;-70
2023/01/01 04:17:52;;;;;;;76.55;34.35;;;;;;;3.90;76.51;101228.50;3156797;28;20059;-69
2023/01/01 04:19:25;;;;;;;77.38;34.47;;;;;;;3.93;76.52;101237.97;3158441;28;20059;-69
2023/01/01 04:20:57;;;;;;;69.07;33.67;;;;;;;3.95;76.50;101241.44;3169476;28;20051;-69
2023/01/01 04:22:29;;;;;;;75.15;34.60;;;;;;;3.94;76.41;101234.56;3147064;28;20052;-69
2023/01/01 04:24:00;;;;;;;77.07;33.97;;;;;;;3.90;76.42;101235.38;3159561;28;20044;-68
2023/01/01 04:25:33;;;;;;;68.03;33.03;;;;;;;3.94;76.42;101240.56;3159380;28;20056;-69
2023/01/01 04:27:04;;;;;;;69.88;32.45;;;;;;;3.90;76.32;101236.25;3171103;28;20051;-68
2023/01/01 04:28:36;;;;;;;71.40;34.88;;;;;;;3.92;76.23;101244.84;3160754;28;20048;-69
2023/01/01 04:30:12;;;;;;;75.03;35.05;;;;;;;3.89;76.23;101242.25;3159175;28;20105;-69
2023/01/01 04:31:44;;;;;;;70.88;33.35;;;;;;;3.92;76.17;101247.44;3159114;28;20052;-68
2023/01/01 04:33:16;;;;;;;73.18;34.05;;;;;;;3.92;76.22;101247.44;3158848;28;20109;-69
2023/01/01 04:34:50;;;;;;;73.53;33.88;;;;;;;3.92;76.28;101249.16;3167407;28;20050;-71
2023/01/01 04:36:21;;;;;;;92.18;37.63;;;;;;;3.87;76.19;101241.38;3171823;28;20107;-68
2023/01/01 04:37:53;;;;;;;79.07;36.15;;;;;;;3.83;76.12;101235.34;3172107;28;20558;-68
2023/01/01 04:39:25;;;;;;;80.10;37.00;;;;;;;3.93;76.21;101245.72;3165208;28;20143;-68
2023/01/01 04:41:01;;;;;;;71.72;34.53;;;;;;;3.87;76.28;101234.53;3164767;28;20047;-69
2023/01/01 04:42:33;;;;;;;73.70;35.35;;;;;;;3.92;76.10;101244.00;3166012;28;20402;-69
2023/01/01 04:44:05;;;;;;;82.90;37.38;;;;;;;3.87;76.29;101238.81;3163487;28;20035;-69
2023/01/01 04:45:37;;;;;;;86.28;37.90;;;;;;;3.90;76.24;101240.53;3158802;28;20117;-69
2023/01/01 04:47:09;;;;;;;76.13;37.38;;;;;;;3.88;76.23;101238.81;3161983;28;20055;-70
2023/01/01 04:48:40;;;;;;;92.78;40.63;;;;;;;3.88;76.27;101249.13;3167080;28;20047;-70
2023/01/01 04:50:13;;;;;;;83.20;37.97;;;;;;;3.88;76.32;101238.81;3170056;28;20405;-69
2023/01/01 04:51:45;;;;;;;78.13;36.85;;;;;;;3.87;76.32;101242.28;3159578;28;20048;-69
2023/01/01 04:53:17;;;;;;;80.88;37.80;;;;;;;3.88;76.30;101245.69;3171337;28;20128;-69
2023/01/01 04:54:49;;;;;;;81.72;38.35;;;;;;;3.79;76.24;101231.03;3158892;28;20044;-70
2023/01/01 04:56:21;;;;;;;91.78;39.78;;;;;;;3.84;76.12;101231.91;3171194;28;20105;-70
2023/01/01 04:57:52;;;;;;;88.97;39.08;;;;;;;3.90;76.09;101237.97;3158886;28;20403;-70
2023/01/01 04:59:24;;;;;;;82.30;38.13;;;;;;;3.87;76.02;101237.13;3152172;28;20394;-70
2023/01/01 05:00:56;;;;;;;82.57;37.45;;;;;;;3.82;75.99;101243.94;3159197;28;20059;-70
2023/01/01 05:02:28;;;;;;;68.75;34.53;;;;;;;3.64;75.99;101206.06;3167662;28;20051;-70
2023/01/01 05:04:01;;;;;;;78.97;36.78;;;;;;;3.84;76.02;101244.78;3158948;28;20198;-70
2023/01/01 05:05:34;;;;;;;81.07;38.55;;;;;;;3.83;76.06;101239.66;3166667;28;20055;-70
2023/01/01 05:07:06;;;;;;;84.43;36.78;;;;;;;3.82;76.19;101243.09;3164362;28;20048;-69
2023/01/01 05:08:38;;;;;;;78.18;36.28;;;;;;;3.83;76.03;101253.38;3158285;28;20055;-69
2023/01/01 05:10:10;;;;;;;77.25;37.53;;;;;;;3.72;76.03;101237.00;3164662;28;20130;-69
2023/01/01 05:11:42;;;;;;;75.88;36.50;;;;;;;3.79;76.05;101245.66;3165957;28;20040;-69
2023/01/01 05:13:14;;;;;;;84.60;36.17;;;;;;;3.82;76.06;101261.97;3160582;28;20052;-69
2023/01/01 05:14:46;;;;;;;78.50;36.47;;;;;;;3.81;75.90;101255.09;3156748;28;20063;-70
2023/01/01 05:16:20;;;;;;;74.15;35.03;;;;;;;3.63;75.95;101232.66;3158685;28;20055;-69
2023/01/01 05:17:53;;;;;;;77.97;37.15;;;;;;;3.80;75.97;101265.41;3161259;28;20105;-69
2023/01/01 05:19:25;;;;;;;;;;;;;;;3.70;75.82;101268.75;3172039;28;20077;-69
2023/01/01 05:21:00;;;;;;;70.70;33.15;;;;;;;3.69;75.98;101273.06;3169765;28;19920;-70
2023/01/01 05:22:32;;;;;;;72.13;34.33;;;;;;;3.64;75.85;101267.03;3159738;28;20051;-69
2023/01/01 05:24:06;;;;;;;76.95;35.33;;;;;;;3.61;76.02;101256.72;3171116;28;20486;-69
2023/01/01 05:25:37;;;;;;;73.03;34.05;;;;;;;3.60;75.96;101257.53;3171497;28;20430;-69
2023/01/01 05:27:09;;;;;;;73.70;36.63;;;;;;;3.61;76.01;101265.28;3170200;28;20050;-69
2023/01/01 05:28:41;;;;;;;79.57;35.15;;;;;;;3.62;75.96;101268.72;3167524;28;20629;-71
2023/01/01 05:30:13;;;;;;;75.85;34.33;;;;;;;3.60;75.83;101265.25;3165685;28;20137;-70
2023/01/01 05:31:45;;;;;;;75.72;35.60;;;;;;;3.61;75.89;101272.16;3166818;28;20100;-70
2023/01/01 05:33:16;;;;;;;69.85;34.75;;;;;;;3.55;75.78;101262.69;3148079;28;20445;-69
2023/01/01 05:34:48;;;;;;;73.22;35.60;;;;;;;3.56;75.86;101276.41;3155020;28;20044;-69
2023/01/01 05:36:24;;;;;;;67.47;34.90;;;;;;;3.61;75.97;101287.63;3158473;28;20048;-68
2023/01/01 05:37:55;;;;;;;75.93;36.00;;;;;;;3.57;75.95;101280.69;3158535;28;20056;-68
2023/01/01 05:39:27;;;;;;;74.93;34.35;;;;;;;3.58;75.76;101293.59;3158151;28;20117;-68
2023/01/01 05:40:59;;;;;;;73.03;35.15;;;;;;;3.58;75.84;101291.03;3165123;28;20589;-69
2023/01/01 05:42:31;;;;;;;69.47;34.55;;;;;;;3.57;75.90;101291.00;3159011;28;20047;-68
2023/01/01 05:44:04;;;;;;;73.88;34.15;;;;;;;3.56;75.85;101284.13;3163890;28;20120;-69
2023/01/01 05:45:35;;;;;;;69.65;34.55;;;;;;;3.54;76.02;101285.84;3170762;28;20486;-68
2023/01/01 05:47:07;;;;;;;78.72;34.72;;;;;;;3.47;75.93;101278.91;3167025;28;20047;-68
2023/01/01 05:48:39;;;;;;;84.47;37.97;;;;;;;3.51;76.05;101288.38;3159643;28;20048;-70
2023/01/01 05:50:11;;;;;;;77.18;35.97;;;;;;;3.46;76.33;101282.31;3160676;28;20482;-68
2023/01/01 05:51:45;;;;;;;73.25;36.35;;;;;;;3.49;76.31;101282.34;3165509;28;20048;-68
2023/01/01 05:53:15;;;;;;;78.80;36.63;;;;;;;3.47;76.51;101289.22;3171026;28;20513;-68
2023/01/01 05:54:47;;;;;;;72.35;36.10;;;;;;;3.40;76.50;101278.00;3155234;28;20127;-70
2023/01/01 05:56:19;;;;;;;72.88;35.67;;;;;;;3.45;76.62;101289.19;3158214;28;20052;-68
2023/01/01 05:57:51;;;;;;;78.30;36.03;;;;;;;3.48;76.80;101288.38;3145597;28;20487;-69
2023/01/01 05:59:23;;;;;;;75.93;37.88;;;;;;;3.48;76.76;101286.66;3159637;28;20113;-68
2023/01/01 06:00:55;;;;;;;75.57;35.78;;;;;;;3.49;76.61;101290.06;3157667;28;20468;-69
2023/01/01 06:02:29;;;;;;;72.88;35.15;;;;;;;3.48;76.61;101291.78;3157987;28;20097;-69
2023/01/01 06:04:02;;;;;;;72.00;33.90;;;;;;;3.52;76.59;101292.69;3158175;28;20048;-69
2023/01/01 06:05:35;;;;;;;72.13;35.33;;;;;;;3.53;76.51;101289.28;3167714;28;20112;-68
2023/01/01 06:07:08;;;;;;;;;;;;;;;3.46;76.39;101288.38;3171132;28;20636;-70
2023/01/01 06:08:40;;;;;;;72.53;33.28;;;;;;;3.47;76.60;101284.06;3170844;28;19923;-69
2023/01/01 06:10:12;;;;;;;70.68;35.20;;;;;;;3.49;76.48;101287.50;3162248;28;20044;-69
2023/01/01 06:11:44;;;;;;;77.75;35.20;;;;;;;3.51;76.39;101286.66;3165289;28;20541;-68
2023/01/01 06:13:14;;;;;;;76.55;36.95;;;;;;;3.52;76.35;101280.69;3170881;28;20044;-68
2023/01/01 06:14:46;;;;;;;75.20;36.17;;;;;;;3.55;76.42;101287.53;3159883;28;20124;-69
2023/01/01 06:16:18;;;;;;;73.88;36.80;;;;;;;3.57;76.47;101285.84;3164993;28;20124;-68
2023/01/01 06:17:50;;;;;;;71.88;36.47;;;;;;;3.62;76.48;101291.91;3170674;28;20439;-69
2023/01/01 06:19:22;;;;;;;81.95;38.17;;;;;;;3.66;76.45;101285.91;3170581;28;20105;-69
2023/01/01 06:20:54;;;;;;;78.90;38.95;;;;;;;3.68;76.47;101280.78;3170646;28;20128;-69
2023/01/01 06:22:27;;;;;;;80.32;38.28;;;;;;;3.74;76.48;101283.41;3170653;28;20112;-68
2023/01/01 06:23:59;;;;;;;84.35;40.88;;;;;;;3.84;76.48;101285.16;3165064;28;20085;-68
2023/01/01 06:25:31;;;;;;;87.60;42.50;;;;;;;3.91;76.48;101276.66;3162167;28;20123;-68
2023/01/01 06:27:03;;;;;;;84.07;40.47;;;;;;;3.98;76.51;101283.53;3157995;28;20052;-68
2023/01/01 06:28:34;;;;;;;81.97;37.08;;;;;;;4.11;76.53;101279.31;3169269;28;20513;-68
2023/01/01 06:30:08;;;;;;;79.72;38.55;;;;;;;4.23;76.57;101279.38;3169258;28;20143;-68
2023/01/01 06:31:39;;;;;;;77.03;37.13;;;;;;;4.30;76.26;101267.38;3157725;28;20052;-69
2023/01/01 06:33:11;;;;;;;76.72;37.17;;;;;;;4.42;76.20;101267.41;3166826;28;20055;-68
2023/01/01 06:34:43;;;;;;;77.15;36.85;;;;;;;4.53;76.12;101265.75;3170484;28;20047;-68
2023/01/01 06:36:16;;;;;;;74.57;36.08;;;;;;;4.72;75.97;101273.53;3170463;28;20075;-69
2023/01/01 06:37:49;;;;;;;69.50;34.42;;;;;;;4.87;75.72;101270.97;3163231;28;20775;-69
2023/01/01 06:39:21;;;;;;;69.22;35.20;;;;;;;4.87;75.66;101255.47;3163924;28;20055;-68
2023/01/01 06:40:57;;;;;;;77.07;37.28;;;;;;;5.15;75.40;101278.78;3164665;28;20468;-68
2023/01/01 06:42:29;;;;;;;68.97;33.08;;;;;;;5.30;75.28;101283.09;3157671;28;20493;-68
2023/01/01 06:44:01;;;;;;;70.75;33.92;;;;;;;5.44;74.89;101279.63;3157830;28;20048;-68
2023/01/01 06:45:33;;;;;;;67.38;34.15;;;;;;;5.60;74.65;101285.66;3157352;28;20130;-68
2023/01/01 06:47:05;;;;;;;69.40;33.85;;;;;;;5.76;74.32;101290.78;3157810;28;20059;-68
2023/01/01 06:48:37;;;;;;;71.20;34.25;;;;;;;5.91;74.14;101288.16;3157316;28;20635;-68
2023/01/01 06:50:09;;;;;;;76.65;37.15;;;;;;;6.05;73.81;101290.75;3158987;28;20462;-68
2023/01/01 06:51:43;;;;;;;77.03;37.53;;;;;;;6.20;72.95;101293.31;3163520;28;20538;-69
2023/01/01 06:53:15;;;;;;;67.07;34.70;;;;;;;6.26;72.85;101279.50;3169704;28;20047;-66
2023/01/01 06:54:47;;;;;;;60.35;31.20;;;;;;;6.44;72.63;101294.94;3157330;28;20048;-67
2023/01/01 06:56:19;;;;;;;68.15;33.80;;;;;;;6.61;72.21;101292.28;3169934;28;20051;-68
2023/01/01 06:57:52;;;;;;;68.40;33.58;;;;;;;6.74;71.95;101282.72;3168303;28;20051;-67
2023/01/01 06:59:24;;;;;;;58.83;31.60;;;;;;;6.85;71.42;101291.28;3159450;28;20052;-67
2023/01/01 07:01:03;;;;;;;61.78;32.47;;;;;;;6.16;71.10;101154.50;3157381;28;20105;-68
2023/01/01 07:02:35;;;;;;;65.28;34.08;;;;;;;7.17;70.61;101293.66;3157329;28;20048;-69
2023/01/01 07:04:11;;;;;;;68.07;33.53;;;;;;;7.31;70.40;101290.97;3167913;28;20047;-69
2023/01/01 07:05:43;;;;;;;72.93;33.95;;;;;;;7.51;69.97;101296.84;3159997;28;20048;-69
2023/01/01 07:07:15;;;;;;;65.00;33.95;;;;;;;7.71;69.69;101301.00;3157004;28;20040;-69
2023/01/01 07:08:49;;;;;;;67.75;31.75;;;;;;;7.88;69.38;101301.69;3165614;28;20049;-68
2023/01/01 07:10:21;;;;;;;62.53;29.08;;;;;;;8.14;68.63;101295.38;3159843;28;20143;-69
2023/01/01 07:11:52;;;;;;;64.05;31.67;;;;;;;8.32;68.04;101284.78;3159560;28;20059;-69
2023/01/01 07:13:25;;;;;;;64.60;33.03;;;;;;;8.64;67.50;101296.53;3170151;28;20044;-69
2023/01/01 07:14:56;;;;;;;58.40;29.38;;;;;;;8.87;66.81;101289.28;3163493;28;20116;-69
2023/01/01 07:16:28;;;;;;;66.97;30.27;;;;;;;9.14;66.36;101284.56;3165371;28;20051;-69